createdAt,value
2022-08-20T00:01:39.562Z,76.64
2022-08-20T00:04:06.939Z,77.09
2022-08-20T00:06:34.907Z,77.28
2022-08-20T00:09:02.203Z,77.38
2022-08-20T00:11:30.236Z,77.00
2022-08-20T00:14:01.076Z,77.50
2022-08-20T00:16:33.141Z,77.65
2022-08-20T00:19:02.303Z,78.29
2022-08-20T00:21:31.400Z,76.98
2022-08-20T00:23:59.609Z,77.42
2022-08-20T00:26:27.381Z,77.33
2022-08-20T00:28:55.257Z,77.28
2022-08-20T00:31:25.045Z,77.45
2022-08-20T00:33:53.596Z,77.80
2022-08-20T00:36:22.518Z,78.29
2022-08-20T00:38:59.949Z,77.90
2022-08-20T00:41:28.511Z,78.04
2022-08-20T00:44:19.667Z,78.39
2022-08-20T00:46:48.044Z,77.10
2022-08-20T00:49:22.305Z,77.19
2022-08-20T00:51:58.365Z,77.51
2022-08-20T00:54:53.847Z,77.74
2022-08-20T00:57:59.703Z,77.85
2022-08-20T01:00:33.129Z,77.42
2022-08-20T01:03:01.698Z,77.42
2022-08-20T01:05:30.151Z,77.32
2022-08-20T01:07:58.375Z,77.16
2022-08-20T01:10:30.101Z,77.15
2022-08-20T01:12:59.934Z,76.80
2022-08-20T01:15:32.000Z,76.40
2022-08-20T01:18:01.998Z,76.58
2022-08-20T01:20:38.795Z,76.29
2022-08-20T01:23:30.222Z,76.58
2022-08-20T01:26:13.987Z,76.80
2022-08-20T01:28:50.732Z,77.37
2022-08-20T01:31:23.296Z,77.97
2022-08-20T01:33:52.916Z,78.54
2022-08-20T01:36:30.442Z,78.02
2022-08-20T01:39:00.465Z,78.78
2022-08-20T01:41:58.366Z,78.86
2022-08-20T01:44:26.411Z,78.63
2022-08-20T01:46:57.596Z,78.71
2022-08-20T01:49:31.796Z,78.08
2022-08-20T01:52:02.743Z,78.50
2022-08-20T01:54:30.341Z,78.28
2022-08-20T01:57:27.286Z,78.17
2022-08-20T01:59:55.031Z,78.18
2022-08-20T02:02:24.566Z,78.34
2022-08-20T02:04:51.947Z,77.87
2022-08-20T02:07:22.742Z,78.22
2022-08-20T02:09:50.761Z,78.29
2022-08-20T02:12:18.885Z,78.36
2022-08-20T02:14:51.442Z,78.01
2022-08-20T02:17:22.905Z,78.37
2022-08-20T02:19:59.845Z,78.02
2022-08-20T02:22:51.487Z,78.11
2022-08-20T02:25:23.115Z,78.09
2022-08-20T02:27:53.494Z,77.92
2022-08-20T02:30:29.103Z,77.88
2022-08-20T02:32:58.137Z,78.29
2022-08-20T02:35:26.321Z,78.23
2022-08-20T02:37:55.257Z,78.16
2022-08-20T02:40:30.890Z,78.19
2022-08-20T02:43:03.333Z,77.52
2022-08-20T02:45:43.876Z,78.23
2022-08-20T02:48:21.455Z,77.83
2022-08-20T02:51:01.895Z,78.03
2022-08-20T02:53:33.349Z,77.66
2022-08-20T02:56:01.078Z,78.00
2022-08-20T02:58:28.947Z,77.93
2022-08-20T03:00:56.922Z,77.61
2022-08-20T03:03:25.144Z,78.05
2022-08-20T03:05:56.423Z,77.44
2022-08-20T03:08:25.712Z,77.66
2022-08-20T03:10:53.271Z,77.71
2022-08-20T03:13:22.096Z,77.76
2022-08-20T03:15:58.662Z,77.14
2022-08-20T03:18:39.201Z,77.47
2022-08-20T03:21:09.879Z,76.87
2022-08-20T03:23:38.199Z,77.30
2022-08-20T03:26:12.968Z,76.87
2022-08-20T03:28:41.260Z,77.30
2022-08-20T03:31:08.904Z,77.17
2022-08-20T03:33:36.863Z,77.50
2022-08-20T03:36:07.942Z,78.09
2022-08-20T03:38:35.892Z,78.29
2022-08-20T03:41:04.153Z,77.70
2022-08-20T03:43:32.683Z,78.43
2022-08-20T03:46:00.195Z,78.77
2022-08-20T03:48:28.110Z,78.77
2022-08-20T03:50:56.664Z,78.61
2022-08-20T03:53:24.080Z,79.02
2022-08-20T03:55:55.770Z,79.11
2022-08-20T03:58:30.053Z,78.94
2022-08-20T04:01:05.100Z,79.18
2022-08-20T04:03:32.845Z,79.42
2022-08-20T04:06:00.105Z,79.81
2022-08-20T04:08:30.289Z,79.99
2022-08-20T04:10:59.808Z,80.60
2022-08-20T04:13:29.223Z,80.53
2022-08-20T04:15:57.130Z,79.47
2022-08-20T04:18:26.571Z,79.25
2022-08-20T04:20:54.711Z,79.22
2022-08-20T04:23:23.325Z,79.25
2022-08-20T04:25:50.628Z,79.64
2022-08-20T04:28:26.965Z,80.30
2022-08-20T04:30:56.863Z,80.27
2022-08-20T04:33:34.233Z,80.57
2022-08-20T04:36:05.765Z,80.56
2022-08-20T04:38:48.510Z,80.42
2022-08-20T04:41:22.500Z,81.09
2022-08-20T04:43:54.184Z,80.95
2022-08-20T04:46:25.845Z,81.60
2022-08-20T04:48:54.366Z,80.98
2022-08-20T04:51:22.917Z,81.02
2022-08-20T04:53:52.335Z,81.34
2022-08-20T04:56:29.705Z,80.47
2022-08-20T04:59:00.847Z,80.75
2022-08-20T05:01:29.287Z,80.18
2022-08-20T05:03:58.242Z,80.72
2022-08-20T05:06:30.991Z,80.69
2022-08-20T05:09:00.712Z,81.06
2022-08-20T05:11:34.449Z,80.70
2022-08-20T05:14:09.524Z,79.94
2022-08-20T05:16:39.722Z,79.75
2022-08-20T05:19:11.431Z,79.46
2022-08-20T05:21:39.323Z,80.26
2022-08-20T05:24:08.329Z,79.85
2022-08-20T05:26:36.027Z,79.53
2022-08-20T05:29:05.388Z,80.91
2022-08-20T05:31:34.897Z,79.50
2022-08-20T05:34:11.121Z,80.25
2022-08-20T05:36:48.097Z,80.03
2022-08-20T05:39:18.953Z,80.32
2022-08-20T05:41:46.403Z,79.36
2022-08-20T05:44:15.568Z,79.90
2022-08-20T05:46:45.574Z,79.51
2022-08-20T05:49:21.125Z,78.97
2022-08-20T05:51:51.343Z,79.12
2022-08-20T05:54:18.894Z,79.76
2022-08-20T05:56:46.149Z,79.10
2022-08-20T05:59:14.156Z,77.04
2022-08-20T06:01:43.055Z,78.98
2022-08-20T06:04:31.944Z,77.77
2022-08-20T06:07:06.530Z,77.69
2022-08-20T06:09:36.278Z,76.93
2022-08-20T06:12:06.727Z,76.73
2022-08-20T06:14:34.642Z,76.86
2022-08-20T06:17:15.178Z,76.89
2022-08-20T06:19:45.087Z,78.43
2022-08-20T06:22:21.257Z,76.90
2022-08-20T06:24:55.669Z,78.29
2022-08-20T06:27:23.126Z,78.73
2022-08-20T06:29:51.701Z,77.08
2022-08-20T06:32:32.275Z,78.23
2022-08-20T06:35:03.581Z,78.52
2022-08-20T06:37:32.337Z,78.89
2022-08-20T06:40:19.733Z,78.20
2022-08-20T06:42:48.767Z,78.65
2022-08-20T06:45:26.822Z,77.57
2022-08-20T06:47:58.589Z,77.80
2022-08-20T06:50:47.110Z,79.71
2022-08-20T06:53:19.058Z,78.33
2022-08-20T06:55:50.897Z,77.89
2022-08-20T06:58:36.703Z,77.93
2022-08-20T07:01:09.630Z,79.23
2022-08-20T07:03:39.163Z,78.91
2022-08-20T07:06:07.635Z,79.77
2022-08-20T07:08:35.678Z,79.31
2022-08-20T07:11:03.072Z,77.74
2022-08-20T07:13:30.455Z,76.93
2022-08-20T07:15:57.759Z,76.30
2022-08-20T07:18:28.381Z,76.53
2022-08-20T07:20:57.841Z,76.73
2022-08-20T07:23:26.492Z,78.56
2022-08-20T07:25:55.795Z,75.36
2022-08-20T07:28:29.034Z,75.58
2022-08-20T07:31:15.993Z,74.15
2022-08-20T07:33:44.676Z,73.57
2022-08-20T07:36:13.965Z,74.05
2022-08-20T07:38:41.710Z,74.46
2022-08-20T07:41:13.484Z,73.03
2022-08-20T07:43:42.791Z,74.13
2022-08-20T07:46:10.310Z,71.52
2022-08-20T07:48:40.651Z,72.38
2022-08-20T07:51:11.022Z,69.98
2022-08-20T07:53:40.874Z,69.74
2022-08-20T07:56:12.759Z,70.12
2022-08-20T07:58:50.389Z,70.69
2022-08-20T08:01:29.676Z,70.51
2022-08-20T08:03:57.978Z,69.46
2022-08-20T08:06:29.554Z,70.79
2022-08-20T08:09:11.767Z,69.89
2022-08-20T08:11:47.296Z,70.42
2022-08-20T08:14:23.725Z,71.17
2022-08-20T08:16:54.688Z,71.57
2022-08-20T08:19:22.374Z,71.75
2022-08-20T08:21:49.999Z,71.66
2022-08-20T08:24:21.637Z,71.59
2022-08-20T08:26:50.398Z,72.06
2022-08-20T08:29:17.891Z,72.13
2022-08-20T08:31:45.326Z,73.07
2022-08-20T08:34:13.180Z,72.73
2022-08-20T08:36:40.521Z,72.85
2022-08-20T08:39:13.683Z,71.88
2022-08-20T08:41:50.034Z,72.34
2022-08-20T08:44:28.980Z,72.10
2022-08-20T08:47:18.385Z,73.46
2022-08-20T08:49:47.731Z,73.71
2022-08-20T08:52:33.429Z,74.48
2022-08-20T08:55:06.373Z,74.72
2022-08-20T08:57:34.418Z,74.77
2022-08-20T09:00:12.357Z,74.94
2022-08-20T09:02:42.498Z,74.24
2022-08-20T09:05:24.424Z,74.52
2022-08-20T09:07:54.332Z,75.17
2022-08-20T09:10:23.329Z,75.34
2022-08-20T09:12:52.410Z,75.36
2022-08-20T09:15:21.471Z,75.13
2022-08-20T09:17:48.909Z,75.00
2022-08-20T09:20:18.240Z,74.82
2022-08-20T09:22:45.490Z,75.12
2022-08-20T09:25:13.127Z,76.04
2022-08-20T09:27:41.502Z,75.11
2022-08-20T09:30:12.388Z,74.27
2022-08-20T09:32:41.549Z,73.94
2022-08-20T09:35:10.237Z,74.39
2022-08-20T09:37:38.127Z,72.55
2022-08-20T09:40:08.825Z,72.13
2022-08-20T09:42:41.314Z,73.90
2022-08-20T09:45:11.404Z,73.61
2022-08-20T09:47:54.917Z,74.07
2022-08-20T09:50:25.559Z,73.66
2022-08-20T09:52:55.147Z,74.25
2022-08-20T09:55:41.963Z,75.46
2022-08-20T09:58:23.565Z,73.83
2022-08-20T10:00:51.309Z,72.93
2022-08-20T10:03:19.254Z,73.16
2022-08-20T10:05:46.613Z,73.42
2022-08-20T10:08:14.675Z,71.89
2022-08-20T10:10:42.052Z,73.65
2022-08-20T10:13:09.408Z,73.75
2022-08-20T10:15:41.955Z,77.52
2022-08-20T10:18:10.436Z,76.52
2022-08-20T10:20:40.229Z,77.50
2022-08-20T10:23:07.755Z,79.02
2022-08-20T10:25:35.189Z,78.67
2022-08-20T10:28:02.645Z,78.56
2022-08-20T10:30:29.939Z,79.36
2022-08-20T10:32:57.168Z,79.95
2022-08-20T10:35:24.639Z,80.53
2022-08-20T10:37:52.062Z,81.52
2022-08-20T10:40:19.480Z,81.15
2022-08-20T10:42:46.968Z,82.49
2022-08-20T10:45:16.531Z,82.53
2022-08-20T10:47:44.796Z,82.62
2022-08-20T10:50:16.600Z,81.60
2022-08-20T10:52:44.058Z,82.88
2022-08-20T10:55:11.726Z,83.54
2022-08-20T10:57:41.526Z,82.42
2022-08-20T11:00:15.567Z,82.12
2022-08-20T11:02:42.918Z,80.83
2022-08-20T11:05:10.462Z,81.87
2022-08-20T11:07:55.146Z,80.80
2022-08-20T11:10:30.470Z,83.26
2022-08-20T11:12:58.229Z,83.73
2022-08-20T11:15:25.765Z,81.73
2022-08-20T11:17:53.469Z,83.60
2022-08-20T11:20:23.802Z,83.07
2022-08-20T11:22:51.447Z,82.58
2022-08-20T11:25:19.566Z,82.05
2022-08-20T11:27:50.936Z,82.42
2022-08-20T11:30:27.283Z,80.92
2022-08-20T11:32:55.273Z,81.53
2022-08-20T11:35:42.162Z,80.91
2022-08-20T11:38:11.481Z,81.76
2022-08-20T11:40:38.811Z,83.32
2022-08-20T11:43:15.065Z,81.98
2022-08-20T11:45:45.849Z,82.91
2022-08-20T11:48:13.451Z,83.78
2022-08-20T11:50:42.195Z,84.10
2022-08-20T11:53:09.568Z,83.03
2022-08-20T11:55:38.675Z,82.97
2022-08-20T11:58:06.981Z,82.95
2022-08-20T12:00:34.571Z,83.57
2022-08-20T12:03:08.980Z,84.04
2022-08-20T12:05:43.276Z,84.21
2022-08-20T12:08:27.270Z,81.11
2022-08-20T12:10:57.834Z,80.17
2022-08-20T12:13:30.928Z,79.00
2022-08-20T12:16:13.866Z,80.04
2022-08-20T12:18:41.318Z,81.58
2022-08-20T12:21:08.665Z,81.95
2022-08-20T12:23:35.880Z,81.60
2022-08-20T12:26:03.505Z,81.58
2022-08-20T12:28:32.115Z,82.41
2022-08-20T12:30:59.679Z,81.72
2022-08-20T12:33:27.160Z,81.87
2022-08-20T12:35:54.447Z,83.20
2022-08-20T12:38:21.821Z,82.36
2022-08-20T12:40:49.110Z,82.86
2022-08-20T12:43:16.444Z,83.26
2022-08-20T12:45:43.895Z,81.15
2022-08-20T12:48:14.700Z,79.41
2022-08-20T12:50:45.917Z,77.51
2022-08-20T12:53:13.332Z,76.93
2022-08-20T12:55:41.637Z,77.73
2022-08-20T12:58:11.019Z,77.86
2022-08-20T13:00:51.169Z,77.93
2022-08-20T13:03:20.826Z,77.89
2022-08-20T13:05:49.002Z,79.21
2022-08-20T13:08:18.068Z,80.24
2022-08-20T13:10:46.408Z,79.40
2022-08-20T13:13:20.867Z,81.21
2022-08-20T13:15:50.289Z,82.83
2022-08-20T13:18:17.572Z,82.36
2022-08-20T13:20:44.966Z,82.43
2022-08-20T13:23:12.263Z,81.13
2022-08-20T13:25:39.517Z,80.41
2022-08-20T13:28:07.082Z,79.49
2022-08-20T13:30:38.719Z,80.90
2022-08-20T13:33:06.118Z,82.59
2022-08-20T13:35:34.037Z,82.23
2022-08-20T13:38:01.433Z,82.16
2022-08-20T13:40:28.831Z,83.53
2022-08-20T13:42:56.230Z,84.94
2022-08-20T13:45:23.744Z,83.62
2022-08-20T13:47:55.126Z,82.96
2022-08-20T13:50:25.652Z,82.62
2022-08-20T13:52:53.154Z,80.77
2022-08-20T13:55:23.628Z,81.48
2022-08-20T13:57:51.688Z,82.60
2022-08-20T14:00:30.228Z,82.68
2022-08-20T14:03:03.875Z,82.66
2022-08-20T14:05:32.499Z,79.61
2022-08-20T14:08:20.854Z,80.16
2022-08-20T14:10:51.427Z,79.81
2022-08-20T14:13:23.032Z,80.83
2022-08-20T14:15:51.253Z,81.33
2022-08-20T14:18:19.031Z,80.14
2022-08-20T14:20:46.829Z,80.04
2022-08-20T14:23:15.409Z,80.76
2022-08-20T14:25:47.002Z,81.34
2022-08-20T14:28:25.052Z,83.07
2022-08-20T14:30:53.715Z,82.36
2022-08-20T14:33:23.004Z,82.71
2022-08-20T14:35:50.441Z,83.69
2022-08-20T14:38:17.787Z,82.96
2022-08-20T14:40:45.062Z,84.41
2022-08-20T14:43:12.341Z,83.53
2022-08-20T14:45:39.695Z,82.88
2022-08-20T14:48:09.388Z,83.06
2022-08-20T14:50:38.108Z,81.87
2022-08-20T14:53:06.392Z,80.74
2022-08-20T14:55:38.505Z,80.45
2022-08-20T14:58:14.957Z,78.67
2022-08-20T15:00:43.858Z,79.67
2022-08-20T15:03:13.369Z,80.15
2022-08-20T15:05:40.879Z,80.79
2022-08-20T15:08:10.570Z,80.50
2022-08-20T15:10:39.432Z,81.11
2022-08-20T15:13:06.922Z,79.97
2022-08-20T15:15:35.081Z,79.57
2022-08-20T15:18:03.871Z,80.00
2022-08-20T15:20:34.262Z,81.06
2022-08-20T15:23:02.238Z,81.94
2022-08-20T15:25:36.807Z,82.47
2022-08-20T15:28:06.363Z,82.64
2022-08-20T15:30:36.286Z,81.52
2022-08-20T15:33:03.759Z,82.21
2022-08-20T15:35:31.390Z,81.69
2022-08-20T15:38:00.972Z,82.07
2022-08-20T15:40:32.354Z,81.56
2022-08-20T15:43:02.720Z,81.10
2022-08-20T15:45:32.253Z,81.24
2022-08-20T15:48:18.422Z,81.69
2022-08-20T15:50:48.600Z,81.67
2022-08-20T15:53:46.435Z,81.33
2022-08-20T15:57:01.449Z,82.91
2022-08-20T16:00:10.149Z,81.01
2022-08-20T16:03:13.241Z,82.49
2022-08-20T16:06:04.786Z,82.11
2022-08-20T16:09:04.009Z,81.63
2022-08-20T16:12:01.165Z,82.00
2022-08-20T16:14:43.012Z,81.26
2022-08-20T16:17:16.680Z,81.83
2022-08-20T16:20:09.024Z,81.17
2022-08-20T16:22:43.705Z,80.35
2022-08-20T16:25:14.002Z,80.51
2022-08-20T16:28:18.781Z,81.44
2022-08-20T16:31:07.635Z,80.79
2022-08-20T16:34:01.099Z,81.65
2022-08-20T16:36:42.619Z,79.60
2022-08-20T16:39:23.509Z,81.04
2022-08-20T16:41:54.828Z,80.76
2022-08-20T16:44:28.905Z,81.23
2022-08-20T16:47:20.235Z,82.33
2022-08-20T16:50:35.611Z,81.12
2022-08-20T16:53:02.977Z,81.26
2022-08-20T16:55:30.607Z,81.53
2022-08-20T16:57:58.187Z,81.87
2022-08-20T17:00:35.772Z,81.98
2022-08-20T17:03:39.660Z,80.74
2022-08-20T17:06:27.595Z,80.93
2022-08-20T17:08:55.203Z,81.14
2022-08-20T17:11:41.333Z,81.61
2022-08-20T17:14:17.940Z,81.29
2022-08-20T17:16:53.817Z,81.12
2022-08-20T17:19:29.480Z,81.34
2022-08-20T17:22:12.843Z,81.62
2022-08-20T17:24:40.501Z,82.79
2022-08-20T17:27:32.990Z,83.07
2022-08-20T17:30:35.094Z,83.54
2022-08-20T17:33:06.694Z,83.13
2022-08-20T17:36:03.927Z,82.96
2022-08-20T17:38:56.839Z,83.29
2022-08-20T17:41:35.848Z,82.12
2022-08-20T17:44:41.859Z,82.88
2022-08-20T17:47:18.984Z,82.49
2022-08-20T17:50:02.049Z,82.46
2022-08-20T17:52:57.817Z,82.42
2022-08-20T17:55:26.816Z,83.00
2022-08-20T17:58:00.800Z,82.48
2022-08-20T18:00:28.991Z,82.91
2022-08-20T18:03:30.263Z,82.98
2022-08-20T18:06:15.399Z,82.97
2022-08-20T18:09:11.242Z,82.84
2022-08-20T18:12:36.657Z,83.07
2022-08-20T18:15:15.914Z,82.98
2022-08-20T18:18:20.691Z,83.22
2022-08-20T18:21:26.405Z,82.81
2022-08-20T18:24:10.804Z,82.60
2022-08-20T18:26:43.437Z,82.80
2022-08-20T18:29:27.583Z,83.16
2022-08-20T18:32:10.586Z,83.34
2022-08-20T18:34:41.324Z,83.17
2022-08-20T18:37:17.578Z,82.91
2022-08-20T18:39:48.385Z,83.06
2022-08-20T18:42:34.461Z,83.46
2022-08-20T18:45:02.290Z,83.14
2022-08-20T18:47:35.515Z,82.96
2022-08-20T18:50:16.326Z,82.70
2022-08-20T18:53:16.764Z,82.82
2022-08-20T18:56:04.490Z,82.80
2022-08-20T18:58:54.932Z,82.99
2022-08-20T19:01:22.350Z,83.01
2022-08-20T19:03:53.933Z,83.62
2022-08-20T19:06:58.363Z,83.18
2022-08-20T19:09:56.233Z,83.24
2022-08-20T19:12:41.309Z,83.42
2022-08-20T19:15:20.528Z,83.73
2022-08-20T19:18:08.959Z,83.76
2022-08-20T19:20:41.615Z,84.14
2022-08-20T19:23:16.243Z,83.91
2022-08-20T19:25:58.999Z,83.14
2022-08-20T19:28:31.541Z,83.69
2022-08-20T19:31:15.548Z,83.69
2022-08-20T19:33:46.871Z,83.84
2022-08-20T19:36:28.236Z,84.28
2022-08-20T19:39:00.038Z,83.21
2022-08-20T19:41:50.413Z,83.37
2022-08-20T19:44:41.127Z,83.78
2022-08-20T19:47:34.636Z,84.45
2022-08-20T19:50:47.005Z,84.00
2022-08-20T19:53:33.333Z,84.15
2022-08-20T19:56:06.244Z,83.94
2022-08-20T19:58:34.832Z,84.02
2022-08-20T20:01:09.040Z,84.12
2022-08-20T20:03:38.101Z,84.38
2022-08-20T20:06:20.772Z,83.33
2022-08-20T20:09:00.943Z,83.42
2022-08-20T20:12:04.040Z,82.77
2022-08-20T20:14:37.863Z,82.53
2022-08-20T20:17:06.928Z,82.59
2022-08-20T20:19:59.165Z,83.13
2022-08-20T20:22:49.103Z,83.52
2022-08-20T20:25:33.966Z,83.57
2022-08-20T20:28:30.962Z,84.01
2022-08-20T20:31:26.038Z,83.86
2022-08-20T20:34:08.847Z,84.15
2022-08-20T20:36:45.149Z,83.99
2022-08-20T20:39:29.674Z,83.96
2022-08-20T20:42:01.668Z,84.05
2022-08-20T20:44:37.509Z,84.26
2022-08-20T20:47:20.403Z,84.82
2022-08-20T20:49:56.833Z,84.89
2022-08-20T20:52:29.188Z,84.56
2022-08-20T20:55:33.854Z,84.39
2022-08-20T20:58:02.540Z,84.56
2022-08-20T21:00:33.537Z,84.12
2022-08-20T21:03:03.933Z,83.81
2022-08-20T21:05:32.969Z,83.58
2022-08-20T21:08:04.054Z,83.83
2022-08-20T21:10:36.516Z,83.76
2022-08-20T21:13:05.712Z,84.09
2022-08-20T21:15:35.061Z,83.74
2022-08-20T21:18:06.363Z,84.39
2022-08-20T21:20:34.494Z,84.50
2022-08-20T21:23:01.787Z,84.11
2022-08-20T21:25:32.420Z,83.70
2022-08-20T21:28:00.330Z,84.28
2022-08-20T21:30:28.840Z,84.22
2022-08-20T21:32:56.510Z,83.68
2022-08-20T21:35:24.506Z,84.14
2022-08-20T21:37:52.078Z,84.08
2022-08-20T21:40:21.576Z,84.26
2022-08-20T21:42:49.500Z,83.87
2022-08-20T21:45:18.716Z,84.03
2022-08-20T21:47:49.016Z,84.48
2022-08-20T21:50:19.028Z,84.63
2022-08-20T21:53:06.845Z,84.59
2022-08-20T21:55:39.728Z,84.17
2022-08-20T21:58:08.121Z,84.67
2022-08-20T22:01:05.868Z,84.29
2022-08-20T22:03:38.789Z,84.38
2022-08-20T22:06:11.889Z,84.69
2022-08-20T22:08:39.805Z,84.42
2022-08-20T22:11:09.794Z,85.07
2022-08-20T22:13:38.230Z,85.13
2022-08-20T22:16:10.224Z,85.02
2022-08-20T22:18:37.869Z,84.96
2022-08-20T22:21:10.376Z,84.71
2022-08-20T22:23:40.213Z,84.75
2022-08-20T22:26:08.897Z,84.65
2022-08-20T22:28:36.753Z,85.31
2022-08-20T22:31:04.511Z,85.56
2022-08-20T22:33:33.893Z,85.83
2022-08-20T22:36:02.619Z,85.37
2022-08-20T22:38:30.191Z,85.70
2022-08-20T22:40:57.563Z,85.29
2022-08-20T22:43:25.441Z,85.93
2022-08-20T22:45:57.815Z,86.57
2022-08-20T22:48:25.261Z,87.25
2022-08-20T22:50:53.074Z,87.33
2022-08-20T22:53:22.761Z,87.69
2022-08-20T22:55:50.386Z,87.39
2022-08-20T22:58:19.713Z,87.02
2022-08-20T23:00:58.423Z,87.25
2022-08-20T23:03:39.281Z,86.92
2022-08-20T23:06:09.973Z,86.15
2022-08-20T23:08:38.202Z,86.27
2022-08-20T23:11:06.045Z,86.43
2022-08-20T23:13:33.787Z,86.90
2022-08-20T23:16:02.033Z,85.90
2022-08-20T23:18:29.250Z,86.10
2022-08-20T23:20:59.224Z,86.10
2022-08-20T23:23:27.770Z,85.46
2022-08-20T23:25:55.646Z,86.13
2022-08-20T23:28:25.326Z,85.73
2022-08-20T23:30:53.171Z,85.02
2022-08-20T23:33:20.611Z,84.69
2022-08-20T23:35:48.798Z,84.55
2022-08-20T23:38:16.463Z,84.74
2022-08-20T23:40:44.292Z,84.77
2022-08-20T23:43:11.692Z,84.87
2022-08-20T23:45:40.419Z,84.59
2022-08-20T23:48:08.483Z,84.46
2022-08-20T23:50:36.012Z,83.98
2022-08-20T23:53:04.231Z,83.97
2022-08-20T23:55:32.029Z,83.94
2022-08-20T23:57:59.324Z,83.90
